SBY weather

Salisbury Ocean City Wicomico Regional Airport
Salisbury, Maryland, United States

Public forecast

Using degrees Fahrenheit for public forecast. Weather courtesy of forecast.io.

Current aviation weather report (METAR) for Salisbury Ocean City Wicomico Regional Airport

Retrieved 2020/08/05 03:54 UTC (50 minutes ago):

KSBY 050354Z AUTO 18005KT 10SM CLR 23/21 A2997 RMK AO2 SLP149 T02330211

Aviation forecast (TAF) for Salisbury Ocean City Wicomico Regional Airport

Retrieved 2020-08-05 00:30 UTC (4 hours ago):

TAF KSBY 042328Z 0500/0524 19008KT P6SM SKC FM050800 22003KT P6SM SCT060 FM051800 18006KT P6SM SCT050